Alexandria, Pennsylvania
Current Conditions -  °F | °C
As of 8:53 AM on Thursday 30 Oct 2014 (Local Time) from KAOO Reporting Station
Overcast Overcast  
Wind Chill: 40°   Ceiling: 3200
Heat Index: 44°   Visibility: 10mi
Dew Point: 37°   Wind: 8mph
Humidity: 76%   Direction: 300°WNW
Pressure: 30.06"   Gusts: NA
Location:  40.56°N, 78.1°W
Report Text: KAOO 301253Z AUTO 30007KT 10SM SCT022 BKN032 OVC055 07/03 A3006 RMK AO2 SLP186 T00670028
Loading
Personal Weather Stations






























Interactive Weather Map
Tropical Storm Tracking
New forecast layout! Learn more

10-Day Weather Forecast

Advertisements
Track Severe Weather on mobile